createdAt,value
2022-09-30T00:00:35.488Z,100134.69
2022-09-30T00:03:02.237Z,100146.03
2022-09-30T00:05:28.944Z,100138.19
2022-09-30T00:07:55.590Z,100139.94
2022-09-30T00:10:22.237Z,100144.31
2022-09-30T00:12:48.964Z,100144.28
2022-09-30T00:15:15.628Z,100139.91
2022-09-30T00:17:42.550Z,100145.16
2022-09-30T00:20:09.666Z,100144.28
2022-09-30T00:22:36.725Z,100138.19
2022-09-30T00:25:04.241Z,100138.22
2022-09-30T00:27:30.864Z,100145.16
2022-09-30T00:29:57.471Z,100145.16
2022-09-30T00:32:24.063Z,100142.53
2022-09-30T00:34:50.665Z,100142.53
2022-09-30T00:37:17.258Z,100145.16
2022-09-30T00:39:43.935Z,100144.28
2022-09-30T00:42:14.838Z,100147.75
2022-09-30T00:44:50.865Z,100153.88
2022-09-30T00:47:50.384Z,100153.00
2022-09-30T00:50:37.573Z,100152.13
2022-09-30T00:53:35.066Z,100157.34
2022-09-30T00:56:09.196Z,100158.22
2022-09-30T00:58:53.066Z,100157.34
2022-09-30T01:01:20.384Z,100155.63
2022-09-30T01:04:00.366Z,100159.97
2022-09-30T01:06:27.022Z,100154.75
2022-09-30T01:08:54.126Z,100161.69
2022-09-30T01:11:20.860Z,100166.03
2022-09-30T01:13:49.543Z,100165.16
2022-09-30T01:16:50.465Z,100172.16
2022-09-30T01:19:29.329Z,100176.50
2022-09-30T01:22:08.080Z,100175.63
2022-09-30T01:24:46.278Z,100170.38
2022-09-30T01:27:17.944Z,100164.28
2022-09-30T01:30:06.291Z,100163.41
2022-09-30T01:33:01.360Z,100154.72
2022-09-30T01:35:54.051Z,100156.47
2022-09-30T01:38:29.378Z,100157.28
2022-09-30T01:41:06.787Z,100161.66
2022-09-30T01:43:44.896Z,100164.28
2022-09-30T01:46:33.268Z,100156.44
2022-09-30T01:49:10.394Z,100165.16
2022-09-30T01:51:53.493Z,100178.16
2022-09-30T01:54:39.188Z,100161.66
2022-09-30T01:57:11.483Z,100163.34
2022-09-30T01:59:44.832Z,100167.69
2022-09-30T02:02:29.396Z,100174.59
2022-09-30T02:05:00.817Z,100180.69
2022-09-30T02:07:33.279Z,100175.47
2022-09-30T02:10:03.834Z,100185.03
2022-09-30T02:12:35.265Z,100180.66
2022-09-30T02:15:11.120Z,100184.16
2022-09-30T02:17:43.234Z,100189.44
2022-09-30T02:20:17.450Z,100184.22
2022-09-30T02:22:47.003Z,100186.78
2022-09-30T02:25:26.077Z,100175.44
2022-09-30T02:27:59.147Z,100178.03
2022-09-30T02:30:26.114Z,100178.03
2022-09-30T02:32:56.779Z,100196.31
2022-09-30T02:35:29.407Z,100188.50
2022-09-30T02:38:03.543Z,100185.84
2022-09-30T02:40:48.217Z,100187.56
2022-09-30T02:43:14.958Z,100191.91
2022-09-30T02:46:15.213Z,100197.06
2022-09-30T02:49:03.757Z,100196.25
2022-09-30T02:51:49.970Z,100193.63
2022-09-30T02:54:27.347Z,100194.41
2022-09-30T02:56:58.948Z,100194.47
2022-09-30T02:59:26.694Z,100201.41
2022-09-30T03:01:53.481Z,100210.97
2022-09-30T03:04:23.366Z,100205.72
2022-09-30T03:06:50.406Z,100199.63
2022-09-30T03:09:17.129Z,100204.78
2022-09-30T03:11:43.975Z,100198.72
2022-09-30T03:14:32.173Z,100203.97
2022-09-30T03:17:21.590Z,100204.88
2022-09-30T03:19:59.001Z,100207.44
2022-09-30T03:22:52.947Z,100212.66
2022-09-30T03:25:40.598Z,100209.13
2022-09-30T03:28:25.365Z,100218.69
2022-09-30T03:31:00.473Z,100213.47
2022-09-30T03:33:53.074Z,100215.22
2022-09-30T03:36:41.473Z,100217.78
2022-09-30T03:39:19.207Z,100222.97
2022-09-30T03:41:53.128Z,100224.66
2022-09-30T03:44:25.218Z,100231.63
2022-09-30T03:47:04.159Z,100232.53
2022-09-30T03:49:34.567Z,100239.47
2022-09-30T03:52:05.510Z,100234.22
2022-09-30T03:54:33.363Z,100239.44
2022-09-30T03:57:03.399Z,100230.69
2022-09-30T03:59:30.026Z,100239.31
2022-09-30T04:01:57.566Z,100234.97
2022-09-30T04:04:24.244Z,100242.75
2022-09-30T04:06:51.051Z,100241.91
2022-09-30T04:09:17.771Z,100241.91
2022-09-30T04:11:44.403Z,100246.38
2022-09-30T04:14:11.028Z,100242.03
2022-09-30T04:16:37.708Z,100249.78
2022-09-30T04:19:05.569Z,100250.72
2022-09-30T04:21:32.208Z,100256.72
2022-09-30T04:23:58.914Z,100260.13
2022-09-30T04:26:25.686Z,100259.28
2022-09-30T04:28:52.791Z,100258.41
2022-09-30T04:31:21.405Z,100261.88
2022-09-30T04:33:48.245Z,100261.09
2022-09-30T04:36:14.866Z,100263.69
2022-09-30T04:38:41.491Z,100262.00
2022-09-30T04:41:09.834Z,100261.19
2022-09-30T04:43:36.697Z,100269.84
2022-09-30T04:46:03.320Z,100265.38
2022-09-30T04:48:31.378Z,100273.09
2022-09-30T04:51:00.007Z,100274.84
2022-09-30T04:53:26.696Z,100285.19
2022-09-30T04:55:59.720Z,100289.50
2022-09-30T04:58:26.609Z,100292.13
2022-09-30T05:01:00.323Z,100284.34
2022-09-30T05:03:27.107Z,100306.94
2022-09-30T05:05:53.678Z,100291.31
2022-09-30T05:08:20.965Z,100303.47
2022-09-30T05:10:57.259Z,100301.69
2022-09-30T05:13:25.359Z,100301.66
2022-09-30T05:15:52.260Z,100307.75
2022-09-30T05:18:20.106Z,100306.00
2022-09-30T05:20:49.734Z,100312.09
2022-09-30T05:23:16.872Z,100313.06
2022-09-30T05:25:43.466Z,100307.91
2022-09-30T05:28:10.198Z,100312.22
2022-09-30T05:30:36.797Z,100315.72
2022-09-30T05:33:03.462Z,100323.53
2022-09-30T05:35:30.133Z,100321.81
2022-09-30T05:37:56.805Z,100333.09
2022-09-30T05:40:23.433Z,100329.59
2022-09-30T05:42:50.321Z,100328.78
2022-09-30T05:45:16.952Z,100334.00
2022-09-30T05:47:43.613Z,100334.91
2022-09-30T05:50:10.235Z,100327.09
2022-09-30T05:52:36.870Z,100334.97
2022-09-30T05:55:03.656Z,100332.41
2022-09-30T05:57:30.587Z,100337.63
2022-09-30T05:59:58.032Z,100345.38
2022-09-30T06:02:24.920Z,100345.38
2022-09-30T06:04:51.587Z,100343.66
2022-09-30T06:07:18.203Z,100346.25
2022-09-30T06:09:46.138Z,100348.00
2022-09-30T06:12:12.911Z,100343.66
2022-09-30T06:14:39.495Z,100343.78
2022-09-30T06:17:06.542Z,100347.34
2022-09-30T06:19:33.189Z,100356.97
2022-09-30T06:22:00.419Z,100351.75
2022-09-30T06:24:27.055Z,100359.59
2022-09-30T06:26:54.327Z,100364.78
2022-09-30T06:29:20.995Z,100368.34
2022-09-30T06:31:48.522Z,100368.41
2022-09-30T06:34:15.173Z,100371.91
2022-09-30T06:36:41.757Z,100365.81
2022-09-30T06:39:12.907Z,100375.41
2022-09-30T06:41:43.555Z,100371.97
2022-09-30T06:44:10.868Z,100368.50
2022-09-30T06:46:50.769Z,100374.66
2022-09-30T06:49:20.069Z,100372.13
2022-09-30T06:51:46.718Z,100379.97
2022-09-30T06:54:13.539Z,100380.94
2022-09-30T06:56:40.164Z,100379.22
2022-09-30T06:59:07.123Z,100381.91
2022-09-30T07:01:33.792Z,100384.56
2022-09-30T07:04:00.858Z,100389.84
2022-09-30T07:06:27.485Z,100393.38
2022-09-30T07:08:54.615Z,100394.31
2022-09-30T07:11:21.349Z,100398.69
2022-09-30T07:13:49.166Z,100399.56
2022-09-30T07:16:19.389Z,100402.16
2022-09-30T07:18:46.308Z,100399.50
2022-09-30T07:21:15.973Z,100396.84
2022-09-30T07:23:47.267Z,100403.75
2022-09-30T07:26:19.591Z,100399.31
2022-09-30T07:28:46.791Z,100402.75
2022-09-30T07:31:32.318Z,100407.03
2022-09-30T07:33:59.534Z,100398.25
2022-09-30T07:36:34.017Z,100400.78
2022-09-30T07:39:05.823Z,100409.44
2022-09-30T07:41:34.033Z,100398.81
2022-09-30T07:44:00.793Z,100403.91
2022-09-30T07:46:30.262Z,100405.53
2022-09-30T07:49:00.758Z,100410.69
2022-09-30T07:51:31.298Z,100410.47
2022-09-30T07:54:00.194Z,100405.88
2022-09-30T07:56:27.573Z,100398.78
2022-09-30T07:59:00.178Z,100416.88
2022-09-30T08:01:31.508Z,100407.91
2022-09-30T08:04:00.877Z,100411.41
2022-09-30T08:06:28.791Z,100420.00
2022-09-30T08:08:56.771Z,100427.81
2022-09-30T08:11:24.181Z,100431.94
2022-09-30T08:13:52.547Z,100424.69
2022-09-30T08:16:20.240Z,100426.25
2022-09-30T08:18:47.378Z,100426.97
2022-09-30T08:21:14.290Z,100421.59
2022-09-30T08:23:41.107Z,100424.03
2022-09-30T08:26:10.020Z,100429.03
2022-09-30T08:28:38.363Z,100430.84
2022-09-30T08:31:10.368Z,100442.97
2022-09-30T08:33:37.610Z,100438.47
2022-09-30T08:36:06.667Z,100441.06
2022-09-30T08:38:33.561Z,100440.81
2022-09-30T08:41:24.390Z,100439.69
2022-09-30T08:44:25.198Z,100437.56
2022-09-30T08:47:23.195Z,100438.91
2022-09-30T08:50:00.274Z,100440.91
2022-09-30T08:52:44.729Z,100447.47
2022-09-30T08:55:21.988Z,100448.47
2022-09-30T08:57:48.860Z,100447.81
2022-09-30T09:00:17.316Z,100442.47
2022-09-30T09:02:46.827Z,100451.59
2022-09-30T09:05:20.563Z,100440.91
2022-09-30T09:08:24.659Z,100451.34
2022-09-30T09:11:09.000Z,100445.19
2022-09-30T09:14:02.851Z,100442.94
2022-09-30T09:16:35.354Z,100442.91
2022-09-30T09:19:17.710Z,100449.31
2022-09-30T09:21:53.499Z,100444.09
2022-09-30T09:24:28.790Z,100439.75
2022-09-30T09:26:57.431Z,100437.81
2022-09-30T09:29:34.392Z,100444.50
2022-09-30T09:32:03.353Z,100449.03
2022-09-30T09:34:30.836Z,100436.94
2022-09-30T09:37:04.289Z,100443.69
2022-09-30T09:39:44.268Z,100446.53
2022-09-30T09:42:34.062Z,100446.53
2022-09-30T09:45:05.247Z,100440.13
2022-09-30T09:47:32.798Z,100430.97
2022-09-30T09:50:04.283Z,100429.63
2022-09-30T09:53:11.166Z,100433.63
2022-09-30T09:55:38.393Z,100422.03
2022-09-30T09:58:07.012Z,100429.00
2022-09-30T10:00:48.797Z,100426.50
2022-09-30T10:03:20.327Z,100419.44
2022-09-30T10:05:59.845Z,100423.56
2022-09-30T10:08:26.681Z,100426.09
2022-09-30T10:10:58.780Z,100419.09
2022-09-30T10:13:41.098Z,100423.88
2022-09-30T10:16:27.255Z,100415.22
2022-09-30T10:18:54.176Z,100406.94
2022-09-30T10:21:22.692Z,100417.81
2022-09-30T10:23:49.408Z,100409.88
2022-09-30T10:26:21.286Z,100421.47
2022-09-30T10:29:01.778Z,100415.22
2022-09-30T10:31:36.078Z,100419.75
2022-09-30T10:34:11.378Z,100421.72
2022-09-30T10:36:39.883Z,100420.84
2022-09-30T10:39:08.791Z,100421.78
2022-09-30T10:41:37.485Z,100420.25
2022-09-30T10:44:07.763Z,100418.69
2022-09-30T10:46:39.731Z,100415.97
2022-09-30T10:49:10.654Z,100407.03
2022-09-30T10:51:37.877Z,100406.91
2022-09-30T10:54:05.429Z,100409.34
2022-09-30T10:56:39.025Z,100391.47
2022-09-30T10:59:21.682Z,100398.72
2022-09-30T11:01:53.872Z,100405.63
2022-09-30T11:04:37.648Z,100399.00
2022-09-30T11:07:14.894Z,100402.09
2022-09-30T11:09:50.385Z,100405.44
2022-09-30T11:12:26.115Z,100401.31
2022-09-30T11:15:00.017Z,100394.28
2022-09-30T11:17:43.188Z,100395.59
2022-09-30T11:20:20.275Z,100392.03
2022-09-30T11:23:16.891Z,100391.00
2022-09-30T11:25:51.266Z,100391.44
2022-09-30T11:28:29.893Z,100396.31
2022-09-30T11:31:15.416Z,100394.63
2022-09-30T11:34:00.889Z,100389.56
2022-09-30T11:36:59.409Z,100383.72
2022-09-30T11:40:00.932Z,100377.50
2022-09-30T11:42:46.851Z,100375.50
2022-09-30T11:45:25.867Z,100380.13
2022-09-30T11:48:01.427Z,100377.72
2022-09-30T11:50:57.098Z,100370.97
2022-09-30T11:53:44.962Z,100378.50
2022-09-30T11:56:20.614Z,100376.56
2022-09-30T11:58:51.896Z,100374.56
2022-09-30T12:01:33.515Z,100373.69
2022-09-30T12:04:05.356Z,100379.75
2022-09-30T12:06:42.287Z,100371.78
2022-09-30T12:09:25.725Z,100374.06
2022-09-30T12:11:56.758Z,100381.81
2022-09-30T12:14:28.554Z,100379.59
2022-09-30T12:16:57.746Z,100381.88
2022-09-30T12:19:29.818Z,100376.94
2022-09-30T12:22:11.545Z,100369.06
2022-09-30T12:24:40.771Z,100368.56
2022-09-30T12:27:19.069Z,100367.13
2022-09-30T12:30:20.605Z,100371.44
2022-09-30T12:33:02.505Z,100375.22
2022-09-30T12:35:38.213Z,100379.06
2022-09-30T12:38:24.330Z,100383.25
2022-09-30T12:41:12.870Z,100379.25
2022-09-30T12:43:51.405Z,100386.03
2022-09-30T12:47:06.208Z,100388.09
2022-09-30T12:49:37.962Z,100391.94
2022-09-30T12:52:07.190Z,100397.00
2022-09-30T12:54:43.150Z,100399.97
2022-09-30T12:57:09.963Z,100398.81
2022-09-30T12:59:39.575Z,100397.63
2022-09-30T13:02:08.016Z,100401.94
2022-09-30T13:04:34.694Z,100396.38
2022-09-30T13:07:01.210Z,100390.56
2022-09-30T13:09:49.477Z,100395.06
2022-09-30T13:12:17.450Z,100385.34
2022-09-30T13:14:44.053Z,100385.19
2022-09-30T13:17:10.544Z,100380.31
2022-09-30T13:19:44.921Z,100383.50
2022-09-30T13:22:30.189Z,100384.53
2022-09-30T13:24:57.255Z,100388.00
2022-09-30T13:27:42.685Z,100387.59
2022-09-30T13:30:18.679Z,100386.63
2022-09-30T13:32:52.147Z,100390.13
2022-09-30T13:35:35.047Z,100384.47
2022-09-30T13:38:13.781Z,100381.75
2022-09-30T13:41:01.834Z,100380.97
2022-09-30T13:43:42.371Z,100382.88
2022-09-30T13:46:36.656Z,100391.91
2022-09-30T13:49:14.332Z,100392.81
2022-09-30T13:51:41.769Z,100376.22
2022-09-30T13:54:32.749Z,100384.25
2022-09-30T13:57:00.921Z,100391.66
2022-09-30T13:59:48.607Z,100383.38
2022-09-30T14:02:39.628Z,100381.81
2022-09-30T14:05:35.205Z,100382.84
2022-09-30T14:08:53.490Z,100382.97
2022-09-30T14:11:33.002Z,100382.34
2022-09-30T14:14:15.408Z,100387.19
2022-09-30T14:17:05.422Z,100379.81
2022-09-30T14:19:47.542Z,100374.06
2022-09-30T14:22:14.968Z,100381.31
2022-09-30T14:24:41.724Z,100377.03
2022-09-30T14:27:31.452Z,100377.22
2022-09-30T14:30:19.052Z,100382.78
2022-09-30T14:32:53.445Z,100384.00
2022-09-30T14:35:20.605Z,100386.88
2022-09-30T14:38:02.698Z,100382.66
2022-09-30T14:40:34.623Z,100381.69
2022-09-30T14:43:03.274Z,100385.59
2022-09-30T14:45:32.594Z,100388.91
2022-09-30T14:48:09.031Z,100380.59
2022-09-30T14:50:46.645Z,100374.28
2022-09-30T14:53:34.169Z,100386.31
2022-09-30T14:56:02.141Z,100383.09
2022-09-30T14:58:30.796Z,100388.63
2022-09-30T15:01:03.414Z,100388.19
2022-09-30T15:03:30.506Z,100395.59
2022-09-30T15:05:58.216Z,100396.91
2022-09-30T15:08:25.158Z,100394.50
2022-09-30T15:10:54.574Z,100390.81
2022-09-30T15:13:23.883Z,100388.94
2022-09-30T15:15:50.735Z,100391.81
2022-09-30T15:18:36.427Z,100388.06
2022-09-30T15:21:11.765Z,100396.47
2022-09-30T15:23:41.318Z,100402.09
2022-09-30T15:26:10.976Z,100398.47
2022-09-30T15:28:37.734Z,100406.31
2022-09-30T15:31:05.232Z,100398.69
2022-09-30T15:33:32.460Z,100400.16
2022-09-30T15:36:15.850Z,100400.53
2022-09-30T15:38:49.664Z,100401.00
2022-09-30T15:41:16.734Z,100411.34
2022-09-30T15:43:51.820Z,100404.75
2022-09-30T15:47:20.308Z,100400.78
2022-09-30T15:49:50.121Z,100407.00
2022-09-30T15:52:37.128Z,100403.66
2022-09-30T15:55:36.110Z,100406.72
2022-09-30T15:58:02.780Z,100404.25
2022-09-30T16:00:35.061Z,100408.91
2022-09-30T16:03:20.538Z,100411.84
2022-09-30T16:05:51.831Z,100411.66
2022-09-30T16:08:23.905Z,100405.72
2022-09-30T16:10:52.745Z,100404.66
2022-09-30T16:13:22.042Z,100411.25
2022-09-30T16:15:48.790Z,100411.56
2022-09-30T16:18:32.671Z,100405.72
2022-09-30T16:21:05.832Z,100412.47
2022-09-30T16:23:37.829Z,100405.00
2022-09-30T16:26:20.865Z,100418.44
2022-09-30T16:28:47.787Z,100409.09
2022-09-30T16:31:16.183Z,100414.84
2022-09-30T16:33:44.228Z,100418.75
2022-09-30T16:36:11.853Z,100418.06
2022-09-30T16:38:38.751Z,100418.28
2022-09-30T16:41:05.735Z,100415.84
2022-09-30T16:43:32.703Z,100429.47
2022-09-30T16:46:02.430Z,100430.53
2022-09-30T16:48:29.149Z,100422.94
2022-09-30T16:50:58.999Z,100416.47
2022-09-30T16:53:25.613Z,100430.03
2022-09-30T16:55:52.272Z,100421.34
2022-09-30T16:58:19.864Z,100420.56
2022-09-30T17:00:46.633Z,100419.88
2022-09-30T17:03:15.498Z,100413.84
2022-09-30T17:05:43.322Z,100417.44
2022-09-30T17:08:15.367Z,100407.53
2022-09-30T17:10:43.058Z,100413.06
2022-09-30T17:13:10.049Z,100414.22
2022-09-30T17:15:37.423Z,100414.44
2022-09-30T17:18:07.267Z,100425.22
2022-09-30T17:20:35.020Z,100417.72
2022-09-30T17:23:06.272Z,100425.22
2022-09-30T17:25:34.177Z,100434.16
2022-09-30T17:28:01.187Z,100426.16
2022-09-30T17:30:27.931Z,100432.50
2022-09-30T17:32:54.580Z,100425.53
2022-09-30T17:35:22.566Z,100429.91
2022-09-30T17:37:49.458Z,100425.72
2022-09-30T17:40:35.267Z,100424.09
2022-09-30T17:43:07.866Z,100422.63
2022-09-30T17:45:35.289Z,100423.84
2022-09-30T17:48:02.092Z,100426.53
2022-09-30T17:50:28.947Z,100424.81
2022-09-30T17:52:56.299Z,100426.69
2022-09-30T17:55:22.986Z,100418.81
2022-09-30T17:57:50.094Z,100417.97
2022-09-30T18:00:16.788Z,100415.38
2022-09-30T18:02:44.757Z,100415.44
2022-09-30T18:05:11.749Z,100413.03
2022-09-30T18:07:38.388Z,100411.38
2022-09-30T18:10:05.381Z,100413.22
2022-09-30T18:12:34.264Z,100419.53
2022-09-30T18:15:01.117Z,100423.00
2022-09-30T18:17:28.216Z,100419.59
2022-09-30T18:19:55.029Z,100420.69
2022-09-30T18:22:21.756Z,100429.25
2022-09-30T18:25:07.293Z,100422.34
2022-09-30T18:27:34.072Z,100417.31
2022-09-30T18:30:04.452Z,100416.47
2022-09-30T18:32:31.751Z,100424.38
2022-09-30T18:34:58.559Z,100413.84
2022-09-30T18:37:25.244Z,100420.22
2022-09-30T18:39:52.053Z,100414.19
2022-09-30T18:42:20.210Z,100424.75
2022-09-30T18:44:47.714Z,100420.44
2022-09-30T18:47:17.471Z,100415.13
2022-09-30T18:49:44.557Z,100421.44
2022-09-30T18:52:11.341Z,100416.13
2022-09-30T18:54:38.094Z,100415.47
2022-09-30T18:57:05.076Z,100412.91
2022-09-30T18:59:31.726Z,100413.88
2022-09-30T19:01:59.671Z,100414.78
2022-09-30T19:04:26.378Z,100413.03
2022-09-30T19:06:53.225Z,100421.97
2022-09-30T19:09:19.847Z,100417.63
2022-09-30T19:11:48.026Z,100415.03
2022-09-30T19:14:15.538Z,100408.97
2022-09-30T19:16:43.483Z,100422.16
2022-09-30T19:19:10.638Z,100417.00
2022-09-30T19:21:40.438Z,100420.63
2022-09-30T19:24:08.840Z,100426.81
2022-09-30T19:26:37.363Z,100428.56
2022-09-30T19:29:05.521Z,100421.59
2022-09-30T19:31:34.276Z,100433.84
2022-09-30T19:34:02.048Z,100432.06
2022-09-30T19:36:31.934Z,100428.56
2022-09-30T19:39:11.523Z,100430.31
2022-09-30T19:41:38.857Z,100430.38
2022-09-30T19:44:06.535Z,100427.88
2022-09-30T19:46:33.216Z,100420.97
2022-09-30T19:49:00.061Z,100424.41
2022-09-30T19:51:29.190Z,100417.44
2022-09-30T19:54:04.467Z,100423.59
2022-09-30T19:56:35.118Z,100422.81
2022-09-30T19:59:02.105Z,100425.44
2022-09-30T20:01:29.534Z,100415.88
2022-09-30T20:04:00.289Z,100419.34
2022-09-30T20:06:28.093Z,100425.53
2022-09-30T20:08:59.939Z,100425.59
2022-09-30T20:11:29.714Z,100426.56
2022-09-30T20:14:15.214Z,100427.41
2022-09-30T20:16:43.589Z,100423.13
2022-09-30T20:19:11.384Z,100423.09
2022-09-30T20:21:38.443Z,100418.72
2022-09-30T20:24:05.540Z,100420.47
2022-09-30T20:26:34.179Z,100419.59
2022-09-30T20:29:00.986Z,100422.31
2022-09-30T20:31:28.287Z,100431.91
2022-09-30T20:33:56.367Z,100422.34
2022-09-30T20:36:23.558Z,100421.53
2022-09-30T20:38:51.116Z,100424.19
2022-09-30T20:41:17.768Z,100428.53
2022-09-30T20:43:49.196Z,100431.19
2022-09-30T20:46:15.917Z,100430.34
2022-09-30T20:48:42.618Z,100426.91
2022-09-30T20:51:11.372Z,100420.78
2022-09-30T20:53:39.776Z,100419.94
2022-09-30T20:56:10.692Z,100411.22
2022-09-30T20:58:37.946Z,100412.13
2022-09-30T21:01:09.495Z,100405.16
2022-09-30T21:03:37.764Z,100406.91
2022-09-30T21:06:07.297Z,100413.06
2022-09-30T21:08:39.071Z,100405.13
2022-09-30T21:11:07.392Z,100405.22
2022-09-30T21:13:35.301Z,100410.50
2022-09-30T21:16:04.084Z,100405.22
2022-09-30T21:18:31.266Z,100404.38
2022-09-30T21:20:58.892Z,100399.19
2022-09-30T21:23:26.627Z,100402.66
2022-09-30T21:26:01.172Z,100407.03
2022-09-30T21:28:28.607Z,100400.09
2022-09-30T21:30:56.126Z,100393.94
2022-09-30T21:33:24.282Z,100397.47
2022-09-30T21:36:01.645Z,100399.22
2022-09-30T21:38:30.060Z,100391.41
2022-09-30T21:41:01.489Z,100393.19
2022-09-30T21:43:32.457Z,100392.31
2022-09-30T21:46:07.588Z,100391.44
2022-09-30T21:48:35.624Z,100391.47
2022-09-30T21:51:03.301Z,100383.59
2022-09-30T21:53:29.944Z,100392.38
2022-09-30T21:55:58.669Z,100394.06
2022-09-30T21:58:26.016Z,100386.22
2022-09-30T22:00:54.766Z,100384.50
2022-09-30T22:03:22.891Z,100385.38
2022-09-30T22:05:57.587Z,100388.91
2022-09-30T22:08:24.614Z,100397.63
2022-09-30T22:10:51.310Z,100393.28
2022-09-30T22:13:18.128Z,100397.66
2022-09-30T22:15:46.021Z,100395.94
2022-09-30T22:18:17.375Z,100403.81
2022-09-30T22:20:44.630Z,100409.06
2022-09-30T22:23:11.472Z,100414.31
2022-09-30T22:25:38.278Z,100405.59
2022-09-30T22:28:05.132Z,100404.69
2022-09-30T22:30:32.474Z,100409.94
2022-09-30T22:33:17.682Z,100411.69
2022-09-30T22:36:03.000Z,100402.09
2022-09-30T22:38:29.971Z,100409.09
2022-09-30T22:40:59.322Z,100410.84
2022-09-30T22:43:26.746Z,100409.94
2022-09-30T22:46:08.140Z,100407.34
2022-09-30T22:48:35.052Z,100403.84
2022-09-30T22:51:01.967Z,100404.75
2022-09-30T22:53:29.195Z,100397.75
2022-09-30T22:55:55.974Z,100398.69
2022-09-30T22:58:24.434Z,100398.63
2022-09-30T23:00:58.699Z,100394.28
2022-09-30T23:03:25.556Z,100400.41
2022-09-30T23:05:53.321Z,100397.78
2022-09-30T23:08:19.978Z,100389.94
2022-09-30T23:10:50.264Z,100396.94
2022-09-30T23:13:20.271Z,100397.81
2022-09-30T23:15:47.744Z,100388.22
2022-09-30T23:18:17.632Z,100386.47
2022-09-30T23:20:56.761Z,100384.72
2022-09-30T23:23:23.954Z,100379.50
2022-09-30T23:26:08.157Z,100381.25
2022-09-30T23:28:34.919Z,100372.53
2022-09-30T23:31:08.016Z,100379.50
2022-09-30T23:33:46.614Z,100373.41
2022-09-30T23:36:29.311Z,100378.63
2022-09-30T23:39:20.884Z,100369.03
2022-09-30T23:41:48.863Z,100371.66
2022-09-30T23:44:18.683Z,100365.53
2022-09-30T23:47:05.088Z,100355.94
2022-09-30T23:49:35.431Z,100355.09
2022-09-30T23:52:10.545Z,100350.75
2022-09-30T23:54:42.125Z,100350.72
2022-09-30T23:57:10.489Z,100346.38
2022-09-30T23:59:37.906Z,100345.50
